Time;durP1;ratioP1;P1;durP2;ratioP2;P2;SDS_P1;SDS_P2;PMS_P1;PMS_P2;Temp;Humidity;BMP_temperature;BMP_pressure;BME280_temperature;BME280_humidity;BME280_pressure;Samples;Min_cycle;Max_cycle;Signal;HPM_P1;HPM_P2
2021/12/06 00:00:46;;;;;;;4.73;4.10;;;5.80;99.90;;;;;;10419022;28;20221;-78
2021/12/06 00:05:49;;;;;;;4.60;4.13;;;5.80;99.90;;;;;;10408288;28;20202;-78
2021/12/06 00:10:52;;;;;;;5.20;4.70;;;5.90;99.90;;;;;;10408137;28;20217;-78
2021/12/06 00:15:56;;;;;;;4.77;4.37;;;5.90;99.90;;;;;;10418583;28;20202;-78
2021/12/06 00:20:58;;;;;;;4.63;4.23;;;5.90;99.90;;;;;;10419309;28;20596;-78
2021/12/06 00:26:01;;;;;;;4.57;4.17;;;5.80;99.90;;;;;;10418067;28;20569;-78
2021/12/06 00:31:05;;;;;;;4.43;4.03;;;5.80;99.90;;;;;;10381686;28;20317;-78
2021/12/06 00:36:15;;;;;;;3.73;3.43;;;5.90;99.90;;;;;;10399006;28;20198;-78
2021/12/06 00:41:18;;;;;;;4.50;4.20;;;5.80;99.90;;;;;;10398904;28;20254;-78
2021/12/06 00:46:22;;;;;;;4.73;4.33;;;5.80;99.90;;;;;;10417703;28;20210;-78
2021/12/06 00:51:25;;;;;;;8.00;4.87;;;5.90;99.90;;;;;;10398719;28;20728;-78
2021/12/06 00:56:27;;;;;;;5.00;4.50;;;5.90;99.90;;;;;;10382402;28;20210;-78
2021/12/06 01:01:31;;;;;;;5.63;5.13;;;5.90;99.90;;;;;;10382169;28;20237;-78
2021/12/06 01:06:35;;;;;;;6.00;4.77;;;5.90;99.90;;;;;;10378954;28;20233;-78
2021/12/06 01:11:39;;;;;;;5.50;5.00;;;5.90;99.90;;;;;;10395682;28;20426;-78
2021/12/06 01:16:43;;;;;;;5.90;5.40;;;5.90;99.90;;;;;;10417668;28;20294;-78
2021/12/06 01:21:51;;;;;;;6.00;5.47;;;5.90;99.90;;;;;;10421107;28;20640;-78
2021/12/06 01:32:24;;;;;;;6.43;5.93;;;5.90;99.90;;;;;;10413029;28;20249;-78
2021/12/06 01:42:46;;;;;;;7.30;6.70;;;6.00;99.90;;;;;;10381450;28;20305;-78
2021/12/06 01:47:50;;;;;;;7.07;6.47;;;6.00;99.90;;;;;;10405760;28;20205;-78
2021/12/06 01:52:58;;;;;;;8.20;7.40;;;6.00;99.90;;;;;;10404491;28;20308;-78
2021/12/06 01:58:03;;;;;;;8.33;7.30;;;6.00;99.90;;;;;;10385942;28;20276;-78
2021/12/06 02:03:08;;;;;;;8.07;7.27;;;6.00;99.90;;;;;;10400129;28;20236;-78
2021/12/06 02:08:14;;;;;;;8.07;7.33;;;6.00;99.90;;;;;;10405755;28;20281;-77
2021/12/06 02:13:16;;;;;;;8.10;7.30;;;6.00;99.90;;;;;;10407559;28;20662;-78
2021/12/06 02:18:39;;;;;;;8.00;7.30;;;6.00;99.90;;;;;;10425487;28;20194;-78
2021/12/06 02:23:43;;;;;;;9.63;8.63;;;6.00;99.90;;;;;;10400757;28;20221;-78
2021/12/06 02:28:47;;;;;;;8.77;7.97;;;6.00;99.90;;;;;;10407094;28;20222;-77
2021/12/06 02:33:51;;;;;;;9.73;8.53;;;6.00;99.90;;;;;;10390521;28;20240;-78
2021/12/06 02:38:58;;;;;;;8.33;7.53;;;6.00;99.90;;;;;;10429418;22;20644;-79
2021/12/06 02:44:00;;;;;;;9.87;9.07;;;6.00;99.90;;;;;;10495106;28;20227;-79
2021/12/06 02:49:03;;;;;;;9.27;8.47;;;6.00;99.90;;;;;;10492405;28;20709;-79
2021/12/06 02:54:07;;;;;;;9.30;8.40;;;6.10;99.90;;;;;;10488292;28;20220;-78
2021/12/06 02:59:11;;;;;;;9.40;8.50;;;6.10;99.90;;;;;;10472146;28;20770;-78
2021/12/06 03:04:13;;;;;;;10.20;9.20;;;6.00;99.90;;;;;;10498927;28;20668;-79
2021/12/06 03:09:19;;;;;;;9.70;8.73;;;6.10;99.90;;;;;;10482039;28;20704;-79
2021/12/06 03:14:26;;;;;;;10.37;9.47;;;6.00;99.90;;;;;;10491863;28;20258;-78
2021/12/06 03:19:31;;;;;;;11.80;10.77;;;6.10;99.90;;;;;;10491796;28;20221;-77
2021/12/06 03:24:35;;;;;;;13.60;12.40;;;6.00;99.90;;;;;;10473984;28;20618;-79
2021/12/06 03:29:38;;;;;;;14.43;13.23;;;6.10;99.90;;;;;;10510699;28;20274;-78
2021/12/06 03:34:41;;;;;;;15.57;14.17;;;6.10;99.90;;;;;;10499504;28;20657;-78
2021/12/06 03:39:49;;;;;;;15.80;14.40;;;6.20;99.90;;;;;;10490675;28;20221;-79
2021/12/06 03:44:58;;;;;;;18.63;16.73;;;6.20;99.90;;;;;;10492232;28;20280;-80
2021/12/06 03:50:03;;;;;;;17.33;15.93;;;6.30;99.90;;;;;;10491202;28;20208;-79
2021/12/06 03:55:09;;;;;;;18.57;16.90;;;6.30;99.90;;;;;;10475065;28;20253;-78
2021/12/06 04:00:13;;;;;;;20.50;18.70;;;6.40;99.90;;;;;;10490642;28;20213;-79
2021/12/06 04:05:16;;;;;;;22.03;20.10;;;6.40;99.90;;;;;;10507685;28;20617;-79
2021/12/06 04:10:20;;;;;;;19.70;18.00;;;6.50;99.90;;;;;;10497076;28;20228;-79
2021/12/06 04:15:23;;;;;;;20.93;19.13;;;6.50;99.90;;;;;;10489455;28;20211;-78
2021/12/06 04:20:25;;;;;;;22.70;20.53;;;6.50;99.90;;;;;;10507540;28;20220;-79
2021/12/06 04:25:29;;;;;;;22.37;20.47;;;6.50;99.90;;;;;;10506694;28;20199;-80
2021/12/06 04:30:34;;;;;;;25.13;22.80;;;6.50;99.90;;;;;;10481936;28;20249;-79
2021/12/06 04:35:39;;;;;;;22.90;20.60;;;6.50;99.90;;;;;;10473361;28;20204;-79
2021/12/06 04:40:44;;;;;;;22.50;20.47;;;6.50;99.90;;;;;;10471428;28;20260;-79
2021/12/06 04:45:47;;;;;;;22.77;20.73;;;6.50;99.90;;;;;;10488152;28;20208;-78
2021/12/06 04:50:51;;;;;;;23.83;21.63;;;6.50;99.90;;;;;;10471844;28;20231;-79
2021/12/06 04:55:59;;;;;;;25.50;23.10;;;6.50;99.90;;;;;;10493292;28;20246;-78
2021/12/06 05:01:06;;;;;;;27.00;24.27;;;6.50;99.90;;;;;;10485191;28;20276;-78
2021/12/06 05:06:13;;;;;;;26.13;23.53;;;6.50;99.90;;;;;;10472393;28;20200;-79
2021/12/06 05:11:19;;;;;;;27.10;24.50;;;6.60;99.90;;;;;;10471505;28;20220;-79
2021/12/06 05:16:22;;;;;;;26.40;23.77;;;6.60;99.90;;;;;;10485653;28;20197;-78
2021/12/06 05:21:25;;;;;;;26.50;23.83;;;6.60;99.90;;;;;;10467984;28;20301;-79
2021/12/06 05:26:29;;;;;;;22.27;20.07;;;6.50;99.90;;;;;;10484253;28;20339;-78
2021/12/06 05:31:39;;;;;;;24.73;22.23;;;6.60;99.90;;;;;;10464429;28;20216;-79
2021/12/06 05:36:42;;;;;;;23.57;21.27;;;6.60;99.90;;;;;;10465922;28;20193;-78
2021/12/06 05:41:45;;;;;;;25.43;23.03;;;6.60;99.90;;;;;;10466521;28;20229;-77
2021/12/06 05:46:47;;;;;;;25.47;22.87;;;6.60;99.90;;;;;;10473204;28;20212;-78
2021/12/06 05:51:50;;;;;;;22.33;20.23;;;6.60;99.90;;;;;;10454662;28;20221;-79
2021/12/06 05:56:54;;;;;;;24.00;21.60;;;6.60;99.90;;;;;;10482927;28;20204;-80
2021/12/06 06:01:56;;;;;;;21.83;19.83;;;6.60;99.90;;;;;;10501814;28;20224;-79
2021/12/06 06:06:58;;;;;;;20.83;18.93;;;6.60;99.90;;;;;;10495109;28;20209;-83
2021/12/06 06:12:04;;;;;;;20.93;18.97;;;6.60;99.90;;;;;;10473686;28;20216;-82
2021/12/06 06:17:12;;;;;;;20.43;18.63;;;6.60;99.90;;;;;;10475151;28;20200;-82
2021/12/06 06:22:14;;;;;;;21.33;19.30;;;6.60;99.90;;;;;;10467328;28;20231;-82
2021/12/06 06:27:17;;;;;;;22.27;20.00;;;6.60;99.90;;;;;;10463429;28;20215;-82
2021/12/06 06:32:19;;;;;;;22.20;20.00;;;6.60;99.90;;;;;;10463908;28;20335;-83
2021/12/06 06:37:22;;;;;;;22.57;20.27;;;6.60;99.90;;;;;;10461250;28;20303;-82
2021/12/06 06:42:27;;;;;;;22.80;20.70;;;6.60;99.90;;;;;;10478768;28;20285;-84
2021/12/06 06:47:29;;;;;;;22.53;20.37;;;6.60;99.90;;;;;;10478473;28;20196;-82
2021/12/06 06:52:31;;;;;;;23.90;21.60;;;6.60;99.90;;;;;;10473378;28;20216;-83
2021/12/06 06:57:35;;;;;;;23.47;21.10;;;6.60;99.90;;;;;;10488047;28;20520;-82
2021/12/06 07:02:37;;;;;;;23.07;20.87;;;6.60;99.90;;;;;;10488575;28;20643;-84
2021/12/06 07:07:39;;;;;;;23.83;21.53;;;6.60;99.90;;;;;;10486965;28;20677;-83
2021/12/06 07:12:46;;;;;;;24.80;22.33;;;6.60;99.90;;;;;;10466508;28;20307;-83
2021/12/06 07:17:48;;;;;;;23.87;21.57;;;6.60;99.90;;;;;;10502275;28;20224;-83
2021/12/06 07:22:52;;;;;;;24.57;21.93;;;6.60;99.90;;;;;;10467902;28;20232;-83
2021/12/06 07:27:55;;;;;;;25.80;23.20;;;6.60;99.90;;;;;;10483014;28;20223;-82
2021/12/06 07:33:00;;;;;;;25.47;22.87;;;6.60;99.90;;;;;;10486669;28;20703;-84
2021/12/06 07:38:07;;;;;;;26.80;24.00;;;6.60;99.90;;;;;;10464837;28;20193;-82
2021/12/06 07:43:10;;;;;;;23.27;21.00;;;6.60;99.90;;;;;;10501294;28;20224;-83
2021/12/06 07:48:13;;;;;;;22.70;20.50;;;6.60;99.90;;;;;;10483534;28;20205;-83
2021/12/06 07:53:15;;;;;;;23.97;21.47;;;6.60;99.90;;;;;;10466319;28;20220;-82
2021/12/06 07:58:19;;;;;;;22.73;20.40;;;6.60;99.90;;;;;;10467659;28;20207;-84
2021/12/06 08:03:23;;;;;;;23.10;20.77;;;6.60;99.90;;;;;;10464670;28;20229;-82
2021/12/06 08:08:27;;;;;;;23.23;20.73;;;6.70;99.90;;;;;;10485162;28;20197;-83
2021/12/06 08:13:33;;;;;;;24.10;21.70;;;6.70;99.90;;;;;;10483066;28;20649;-83
2021/12/06 08:18:36;;;;;;;21.97;19.70;;;6.80;99.90;;;;;;10466903;28;20197;-83
2021/12/06 08:23:38;;;;;;;21.73;19.53;;;6.80;99.90;;;;;;10461641;28;20699;-82
2021/12/06 08:28:43;;;;;;;21.23;19.20;;;6.80;99.90;;;;;;10466836;28;20258;-83
2021/12/06 08:33:47;;;;;;;21.43;19.33;;;6.80;99.90;;;;;;10477796;28;20228;-83
2021/12/06 08:38:50;;;;;;;20.47;18.27;;;6.80;99.90;;;;;;10502062;28;20223;-85
2021/12/06 08:43:55;;;;;;;19.27;17.40;;;6.90;99.90;;;;;;10488534;28;20247;-84
2021/12/06 08:48:58;;;;;;;19.70;17.70;;;6.90;99.90;;;;;;10469558;28;20224;-83
2021/12/06 08:54:01;;;;;;;21.47;19.37;;;7.00;99.90;;;;;;10488405;28;20612;-84
2021/12/06 08:59:06;;;;;;;21.73;19.43;;;7.00;99.90;;;;;;10489012;28;20211;-84
2021/12/06 09:04:12;;;;;;;18.33;16.63;;;7.10;99.90;;;;;;10467867;28;20322;-84
2021/12/06 09:09:15;;;;;;;16.43;14.83;;;7.10;99.90;;;;;;10487925;28;20228;-83
2021/12/06 09:14:19;;;;;;;19.87;17.97;;;7.10;99.90;;;;;;10472969;28;20671;-84
2021/12/06 09:19:21;;;;;;;18.10;16.20;;;7.20;99.90;;;;;;10472792;28;20223;-84
2021/12/06 09:24:23;;;;;;;18.63;16.90;;;7.20;99.90;;;;;;10478496;28;20240;-84
2021/12/06 09:29:27;;;;;;;16.83;15.13;;;7.30;99.90;;;;;;10491850;28;20308;-84
2021/12/06 09:34:31;;;;;;;17.50;15.70;;;7.40;99.90;;;;;;10488370;28;20208;-84
2021/12/06 09:39:33;;;;;;;17.63;15.90;;;7.50;99.90;;;;;;10494292;28;20238;-84
2021/12/06 09:44:40;;;;;;;18.63;16.90;;;7.50;99.90;;;;;;10495744;28;20223;-84
2021/12/06 09:49:42;;;;;;;18.47;16.50;;;7.60;99.90;;;;;;10485694;28;20588;-85
2021/12/06 09:54:44;;;;;;;16.77;15.07;;;7.60;99.90;;;;;;10485975;28;20223;-84
2021/12/06 09:59:48;;;;;;;17.50;15.73;;;7.60;99.90;;;;;;10502450;28;20251;-84
2021/12/06 10:04:54;;;;;;;16.97;15.27;;;7.70;99.90;;;;;;10475414;28;20223;-84
2021/12/06 10:09:59;;;;;;;17.87;15.27;;;7.60;99.90;;;;;;10465250;28;20315;-84
2021/12/06 10:15:08;;;;;;;17.37;15.57;;;7.60;99.90;;;;;;10455457;28;20283;-83
2021/12/06 10:20:18;;;;;;;14.80;13.27;;;7.60;99.90;;;;;;10478132;28;20236;-83
2021/12/06 10:25:21;;;;;;;27.03;16.23;;;7.60;99.90;;;;;;10458895;28;20688;-84
2021/12/06 10:30:26;;;;;;;17.20;15.50;;;7.70;99.90;;;;;;10487398;28;20251;-84
2021/12/06 10:35:30;;;;;;;15.73;14.13;;;7.60;99.90;;;;;;10495902;28;20266;-83
2021/12/06 10:40:39;;;;;;;17.23;14.03;;;7.70;99.90;;;;;;10489040;28;20224;-85
2021/12/06 10:45:47;;;;;;;14.20;12.70;;;7.70;99.90;;;;;;10464927;28;20291;-84
2021/12/06 10:50:59;;;;;;;14.57;13.07;;;7.80;99.90;;;;;;10466564;28;20224;-84
2021/12/06 10:56:14;;;;;;;13.40;12.10;;;7.80;99.90;;;;;;10487998;28;20739;-84
2021/12/06 11:01:20;;;;;;;11.77;10.57;;;8.00;99.90;;;;;;10474379;28;20271;-84
2021/12/06 11:06:30;;;;;;;10.80;9.70;;;8.10;99.90;;;;;;10495842;28;20196;-84
2021/12/06 11:11:35;;;;;;;12.27;10.63;;;8.10;99.90;;;;;;10471297;28;20212;-84
2021/12/06 11:16:40;;;;;;;9.20;8.30;;;8.20;99.90;;;;;;10457029;28;20197;-84
2021/12/06 11:21:45;;;;;;;9.90;8.97;;;8.30;99.90;;;;;;10465428;28;20213;-84
2021/12/06 11:26:54;;;;;;;8.87;7.20;;;8.30;99.90;;;;;;10487972;28;20203;-84
2021/12/06 11:32:05;;;;;;;8.37;7.47;;;8.30;99.90;;;;;;10485577;28;20248;-84
2021/12/06 11:37:16;;;;;;;8.50;7.70;;;8.20;99.90;;;;;;10503838;28;20193;-85
2021/12/06 11:42:19;;;;;;;8.43;7.70;;;8.20;99.90;;;;;;10483865;28;20235;-84
2021/12/06 11:47:22;;;;;;;7.77;7.03;;;8.20;99.90;;;;;;10465713;28;20208;-85
2021/12/06 11:52:34;;;;;;;7.80;7.10;;;8.20;99.90;;;;;;10472832;28;20366;-84
2021/12/06 11:57:43;;;;;;;7.97;7.20;;;8.10;99.90;;;;;;10474088;28;20208;-84
2021/12/06 12:02:50;;;;;;;9.13;8.23;;;8.10;99.90;;;;;;10484198;28;20691;-84
2021/12/06 12:07:54;;;;;;;8.10;7.10;;;8.10;99.90;;;;;;10489672;28;20494;-84
2021/12/06 12:13:01;;;;;;;8.07;7.33;;;8.20;99.90;;;;;;10471825;28;20575;-84
2021/12/06 12:18:05;;;;;;;8.13;7.50;;;8.30;99.90;;;;;;10488227;28;20219;-84
2021/12/06 12:23:09;;;;;;;12.67;7.20;;;8.50;99.90;;;;;;10471657;28;20262;-84
2021/12/06 12:28:20;;;;;;;5.90;5.40;;;8.50;99.90;;;;;;10498657;28;20200;-84
2021/12/06 12:33:24;;;;;;;6.10;5.60;;;8.60;99.90;;;;;;10470970;28;20197;-84
2021/12/06 12:38:29;;;;;;;7.20;6.50;;;8.60;99.90;;;;;;10480579;28;20211;-83
2021/12/06 12:43:36;;;;;;;7.20;6.60;;;8.60;99.90;;;;;;10493209;28;20619;-84
2021/12/06 12:48:50;;;;;;;4.80;4.40;;;8.60;99.90;;;;;;10485259;28;20211;-83
2021/12/06 12:54:06;;;;;;;5.83;4.73;;;8.50;99.90;;;;;;10496557;28;20276;-84
2021/12/06 12:59:34;;;;;;;5.40;4.63;;;8.50;99.90;;;;;;10483665;28;20216;-84
2021/12/06 13:05:13;;;;;;;5.03;4.63;;;8.40;99.90;;;;;;10470229;28;20217;-84
2021/12/06 13:10:29;;;;;;;5.80;5.40;;;8.30;99.90;;;;;;10499447;28;20240;-84
2021/12/06 13:15:38;;;;;;;6.73;5.77;;;8.30;99.90;;;;;;10485134;28;20183;-84
2021/12/06 13:20:43;;;;;;;6.73;6.20;;;8.30;99.90;;;;;;10476984;28;20653;-83
2021/12/06 13:25:45;;;;;;;11.53;10.43;;;8.30;99.90;;;;;;10469839;28;20247;-84
2021/12/06 13:30:50;;;;;;;12.23;9.80;;;8.30;99.90;;;;;;10484815;28;20226;-84
2021/12/06 13:35:55;;;;;;;12.73;11.40;;;8.20;99.90;;;;;;10472593;28;20192;-84
2021/12/06 13:41:17;;;;;;;10.03;9.10;;;8.10;99.90;;;;;;10476514;28;20232;-84
2021/12/06 13:46:26;;;;;;;8.13;7.30;;;8.10;99.90;;;;;;10465328;28;20192;-84
2021/12/06 13:51:43;;;;;;;10.60;9.13;;;8.00;99.90;;;;;;10481982;28;20362;-84
2021/12/06 13:56:50;;;;;;;12.30;10.90;;;8.10;99.90;;;;;;10484063;28;20199;-84
2021/12/06 14:01:55;;;;;;;9.73;8.73;;;8.20;99.90;;;;;;10494427;28;20235;-83
2021/12/06 14:07:01;;;;;;;12.17;9.63;;;8.30;99.90;;;;;;10480187;28;20227;-84
2021/12/06 14:12:05;;;;;;;10.50;7.90;;;8.40;99.90;;;;;;10481807;28;20703;-84
2021/12/06 14:17:09;;;;;;;11.13;10.03;;;8.50;99.90;;;;;;10518873;28;20232;-84
2021/12/06 14:22:16;;;;;;;13.23;11.87;;;8.50;99.90;;;;;;10494305;28;20246;-84
2021/12/06 14:27:19;;;;;;;15.17;13.57;;;8.30;99.90;;;;;;10496756;28;20550;-84
2021/12/06 14:32:21;;;;;;;15.20;13.60;;;8.30;99.90;;;;;;10479376;28;20221;-85
2021/12/06 14:37:26;;;;;;;15.10;13.47;;;8.30;99.90;;;;;;10489679;28;20287;-84
2021/12/06 14:42:29;;;;;;;13.90;12.50;;;8.30;99.90;;;;;;10482447;28;20252;-84
2021/12/06 14:47:34;;;;;;;8.50;7.70;;;8.30;99.90;;;;;;10484251;28;20702;-83
2021/12/06 14:52:41;;;;;;;7.00;5.47;;;8.20;99.90;;;;;;10482410;28;20213;-84
2021/12/06 14:57:44;;;;;;;3.80;3.50;;;8.20;99.90;;;;;;10505010;28;20672;-83
2021/12/06 15:02:51;;;;;;;3.97;3.63;;;8.10;99.90;;;;;;10479829;28;20224;-84
2021/12/06 15:07:57;;;;;;;6.50;4.40;;;8.10;99.90;;;;;;10489898;28;20276;-83
2021/12/06 15:13:01;;;;;;;4.53;4.00;;;8.10;99.90;;;;;;10509014;28;20227;-83
2021/12/06 15:18:07;;;;;;;9.80;5.00;;;8.10;99.90;;;;;;10475746;28;20253;-83
2021/12/06 15:23:15;;;;;;;4.80;3.23;;;8.00;99.90;;;;;;10493279;28;20228;-84
2021/12/06 15:28:21;;;;;;;5.03;2.90;;;7.90;99.90;;;;;;10487069;28;20271;-83
2021/12/06 15:33:25;;;;;;;3.17;2.80;;;7.70;99.90;;;;;;10478944;28;20204;-83
2021/12/06 15:38:30;;;;;;;3.50;3.20;;;7.60;99.90;;;;;;10476709;28;20208;-83
2021/12/06 15:43:37;;;;;;;3.30;3.00;;;7.50;99.90;;;;;;10476725;28;20695;-83
2021/12/06 15:48:42;;;;;;;3.10;2.90;;;7.40;99.90;;;;;;10477191;28;20242;-83
2021/12/06 15:53:51;;;;;;;3.87;3.20;;;7.30;99.90;;;;;;10494254;28;20572;-83
2021/12/06 15:59:02;;;;;;;3.93;3.63;;;7.10;99.90;;;;;;10511043;28;20224;-84
2021/12/06 16:04:05;;;;;;;3.60;3.30;;;7.00;99.90;;;;;;10497590;28;20228;-83
2021/12/06 16:09:13;;;;;;;4.03;3.20;;;6.90;99.90;;;;;;10467846;28;20231;-84
2021/12/06 16:14:25;;;;;;;3.40;3.00;;;6.80;99.90;;;;;;10482197;28;20193;-84
2021/12/06 16:19:30;;;;;;;3.90;3.23;;;6.60;99.90;;;;;;10475385;28;20240;-84
2021/12/06 16:24:33;;;;;;;4.13;3.73;;;6.50;99.90;;;;;;10506795;28;20224;-84
2021/12/06 16:29:39;;;;;;;7.07;3.80;;;6.30;99.90;;;;;;10494725;28;20707;-83
2021/12/06 16:34:43;;;;;;;4.90;4.50;;;6.20;99.90;;;;;;10460259;28;20246;-83
2021/12/06 16:39:52;;;;;;;4.87;4.10;;;6.10;99.90;;;;;;10502689;28;20239;-83
2021/12/06 16:44:56;;;;;;;4.53;4.17;;;6.00;99.90;;;;;;10474092;28;20227;-84
2021/12/06 16:50:09;;;;;;;5.07;4.57;;;5.90;99.90;;;;;;10481290;28;20719;-82
2021/12/06 16:55:16;;;;;;;4.20;3.90;;;5.80;99.90;;;;;;10457659;28;20197;-83
2021/12/06 17:00:22;;;;;;;6.23;3.40;;;5.70;99.90;;;;;;10484533;28;20232;-83
2021/12/06 17:05:26;;;;;;;4.03;3.63;;;5.60;99.90;;;;;;10499791;28;20221;-83
2021/12/06 17:10:32;;;;;;;3.37;3.17;;;5.40;99.90;;;;;;10483254;28;20711;-83
2021/12/06 17:15:38;;;;;;;3.20;2.97;;;5.40;99.90;;;;;;10458992;28;20220;-82
2021/12/06 17:20:43;;;;;;;3.27;3.00;;;5.30;99.90;;;;;;10495834;28;20585;-83
2021/12/06 17:25:50;;;;;;;2.90;2.70;;;5.30;99.90;;;;;;10452672;28;20227;-83
2021/12/06 17:30:58;;;;;;;3.00;2.87;;;5.30;99.90;;;;;;10450024;28;20589;-82
2021/12/06 17:36:04;;;;;;;3.43;3.20;;;5.30;99.90;;;;;;10466479;28;20201;-83
2021/12/06 17:41:08;;;;;;;3.97;3.57;;;5.30;99.90;;;;;;10475937;28;20220;-83
2021/12/06 17:46:10;;;;;;;4.03;3.73;;;5.30;99.90;;;;;;10480692;28;20209;-83
2021/12/06 17:51:14;;;;;;;3.80;3.50;;;5.20;99.90;;;;;;10477362;28;20262;-82
2021/12/06 17:56:18;;;;;;;8.40;5.30;;;5.00;99.90;;;;;;10448980;28;20235;-84
2021/12/06 18:01:22;;;;;;;6.00;5.50;;;4.90;99.90;;;;;;10495585;28;20782;-83
2021/12/06 18:06:24;;;;;;;5.00;4.60;;;4.90;99.90;;;;;;10477902;28;20224;-83
2021/12/06 18:11:28;;;;;;;12.13;9.73;;;4.80;99.90;;;;;;10473593;28;20318;-83
2021/12/06 18:16:30;;;;;;;7.70;6.93;;;4.80;99.90;;;;;;10493150;28;20236;-84
2021/12/06 18:21:32;;;;;;;6.60;6.00;;;4.80;99.90;;;;;;10475301;28;20248;-83
2021/12/06 18:26:38;;;;;;;4.80;4.40;;;4.70;99.90;;;;;;10479228;28;20221;-83
2021/12/06 18:31:46;;;;;;;5.97;5.37;;;4.80;99.90;;;;;;10459143;28;20255;-83
2021/12/06 18:36:49;;;;;;;6.07;5.57;;;4.80;99.90;;;;;;10478510;28;20188;-84
2021/12/06 18:41:52;;;;;;;6.13;5.63;;;4.80;99.90;;;;;;10465595;28;20238;-84
2021/12/06 18:46:55;;;;;;;7.23;6.40;;;4.90;99.90;;;;;;10477393;28;20216;-84
2021/12/06 18:51:57;;;;;;;7.80;7.20;;;4.90;99.90;;;;;;10498312;28;20233;-84
2021/12/06 18:57:02;;;;;;;9.60;8.70;;;5.00;99.90;;;;;;10492827;28;20213;-83
2021/12/06 19:02:05;;;;;;;8.10;7.30;;;5.00;99.90;;;;;;10465432;28;20223;-84
2021/12/06 19:07:08;;;;;;;7.10;6.40;;;5.10;99.90;;;;;;10472336;28;20242;-83
2021/12/06 19:12:12;;;;;;;7.50;6.80;;;5.10;99.90;;;;;;10478797;28;20311;-83
2021/12/06 19:17:14;;;;;;;7.53;6.57;;;5.20;99.90;;;;;;10473569;28;20196;-84
2021/12/06 19:22:17;;;;;;;16.50;13.03;;;5.20;99.90;;;;;;10460629;28;20744;-84
2021/12/06 19:27:20;;;;;;;11.03;8.70;;;5.30;99.90;;;;;;10472015;28;20217;-83
2021/12/06 19:32:23;;;;;;;8.53;7.50;;;5.30;99.90;;;;;;10478725;28;20302;-84
2021/12/06 19:37:25;;;;;;;6.97;6.37;;;5.30;99.90;;;;;;10508974;28;20189;-83
2021/12/06 19:42:28;;;;;;;6.67;6.07;;;5.20;99.90;;;;;;10465614;28;20232;-84
2021/12/06 19:47:31;;;;;;;7.70;7.00;;;5.10;99.90;;;;;;10464252;28;20204;-83
2021/12/06 19:52:33;;;;;;;6.23;5.73;;;5.00;99.90;;;;;;10483568;28;20223;-84
2021/12/06 19:57:43;;;;;;;6.23;5.63;;;4.90;99.90;;;;;;10478876;28;20231;-84
2021/12/06 20:02:46;;;;;;;5.10;4.60;;;4.90;99.90;;;;;;10490633;28;20213;-84
2021/12/06 20:07:48;;;;;;;5.60;5.10;;;4.80;99.90;;;;;;10491359;28;20657;-84
2021/12/06 20:12:52;;;;;;;5.90;5.40;;;4.70;99.90;;;;;;10479972;28;20653;-83
2021/12/06 20:17:55;;;;;;;10.90;9.80;;;4.70;99.90;;;;;;10486796;28;20291;-83
2021/12/06 20:22:57;;;;;;;7.63;6.93;;;4.70;99.90;;;;;;10480322;28;20287;-82
2021/12/06 20:28:01;;;;;;;7.90;7.10;;;4.80;99.90;;;;;;10487335;28;20227;-82
2021/12/06 20:33:09;;;;;;;6.17;5.67;;;4.70;99.90;;;;;;10506852;28;20354;-83
2021/12/06 20:38:15;;;;;;;8.37;7.17;;;4.70;99.90;;;;;;10480219;28;20234;-83
2021/12/06 20:43:22;;;;;;;8.23;7.10;;;4.70;99.90;;;;;;10491231;28;20228;-83
2021/12/06 20:48:28;;;;;;;9.83;8.80;;;4.70;99.90;;;;;;10494149;28;20427;-83
2021/12/06 20:53:30;;;;;;;8.40;7.70;;;4.70;99.90;;;;;;10500912;28;20203;-84
2021/12/06 20:58:37;;;;;;;8.17;7.47;;;4.80;99.90;;;;;;10509859;28;20220;-84
2021/12/06 21:03:44;;;;;;;8.07;7.37;;;4.90;99.90;;;;;;10493628;28;20242;-84
2021/12/06 21:08:47;;;;;;;10.03;9.13;;;4.90;99.90;;;;;;10500339;28;20491;-82
2021/12/06 21:13:59;;;;;;;8.80;8.00;;;5.00;99.90;;;;;;10476226;28;20846;-82
2021/12/06 21:19:05;;;;;;;8.03;7.40;;;5.00;99.90;;;;;;10469310;28;20220;-81
2021/12/06 21:24:08;;;;;;;7.20;6.60;;;5.10;99.90;;;;;;10484653;28;20201;-81
2021/12/06 21:29:12;;;;;;;7.80;7.10;;;5.10;99.90;;;;;;10492940;28;20232;-82
2021/12/06 21:34:19;;;;;;;6.40;5.80;;;5.20;99.90;;;;;;10514339;28;20215;-82
2021/12/06 21:39:21;;;;;;;7.03;6.43;;;5.20;99.90;;;;;;10447939;28;20612;-82
2021/12/06 21:44:25;;;;;;;6.87;6.33;;;5.30;99.90;;;;;;10466909;28;20713;-81
2021/12/06 21:49:27;;;;;;;7.57;6.97;;;5.30;99.90;;;;;;10491383;28;20224;-81
2021/12/06 21:54:30;;;;;;;7.40;6.70;;;5.30;99.90;;;;;;10453940;28;20288;-81
2021/12/06 21:59:33;;;;;;;8.17;7.47;;;5.40;99.90;;;;;;10469498;28;20225;-82
2021/12/06 22:04:36;;;;;;;8.10;7.50;;;5.40;99.90;;;;;;10469423;28;20211;-82
2021/12/06 22:09:38;;;;;;;8.70;8.00;;;5.40;99.90;;;;;;10470723;28;20223;-82
2021/12/06 22:14:41;;;;;;;8.63;7.83;;;5.40;99.90;;;;;;10498628;28;20224;-82
2021/12/06 22:19:45;;;;;;;7.93;7.33;;;5.40;99.90;;;;;;10470148;28;20595;-81
2021/12/06 22:24:47;;;;;;;8.60;7.90;;;5.40;99.90;;;;;;10509747;28;20747;-81
2021/12/06 22:29:50;;;;;;;7.77;7.17;;;5.40;99.90;;;;;;10468361;28;20283;-82
2021/12/06 22:34:53;;;;;;;7.60;7.00;;;5.50;99.90;;;;;;10457118;28;20253;-82
2021/12/06 22:39:55;;;;;;;6.97;6.43;;;5.50;99.90;;;;;;10483377;28;20224;-81
2021/12/06 22:44:58;;;;;;;6.90;6.40;;;5.50;99.90;;;;;;10470617;28;20298;-81
2021/12/06 22:50:01;;;;;;;7.10;6.50;;;5.50;99.90;;;;;;10463474;28;20866;-82
2021/12/06 22:55:05;;;;;;;6.97;6.47;;;5.50;99.90;;;;;;10487477;28;20630;-82
2021/12/06 23:00:44;;;;;;;6.80;6.20;;;5.40;99.90;;;;;;10486057;28;20216;-81
2021/12/06 23:05:48;;;;;;;7.00;6.30;;;5.30;99.70;;;;;;10476067;28;20225;-82
2021/12/06 23:10:50;;;;;;;6.83;6.33;;;5.20;99.90;;;;;;10453823;28;20311;-82
2021/12/06 23:15:52;;;;;;;6.80;6.17;;;5.10;99.90;;;;;;10468943;28;20788;-82
2021/12/06 23:20:59;;;;;;;8.03;7.33;;;5.10;99.90;;;;;;10487845;28;20227;-82
2021/12/06 23:26:01;;;;;;;6.80;6.30;;;5.00;99.90;;;;;;10501534;28;20212;-81
2021/12/06 23:31:07;;;;;;;7.30;6.70;;;5.00;99.90;;;;;;10460630;28;20225;-81
2021/12/06 23:36:12;;;;;;;6.77;6.17;;;5.00;99.90;;;;;;10449508;28;20204;-82
2021/12/06 23:41:20;;;;;;;6.87;6.27;;;5.10;99.90;;;;;;10487108;28;20233;-82
2021/12/06 23:46:32;;;;;;;5.90;5.43;;;5.10;99.90;;;;;;10467890;28;20236;-82
2021/12/06 23:51:37;;;;;;;6.50;6.00;;;5.20;99.90;;;;;;10491980;28;20216;-82
2021/12/06 23:56:40;;;;;;;5.70;5.30;;;5.30;99.90;;;;;;10503215;28;20189;-82
